Storm — LG9555 — position and weather

sailwx.info

Track history (hours):
 
Tides and Currents Weather Stations Pressure Air Temp Water Temp Dewpoint Dewpoint Depression Visibility Wind Speed Wind Dir Waves Ship Positions

Storm

Last reported at 2017-Nov-16 09:05 UTC. Time now 2017-Nov-18 17:27 UTC.
Position N 70°02' E 020°59'.

Length 15 m.

Type: . MMSI: 257689600.

Date/timePositionNaut miles runAvg speedWind from/ knotsBaromVisibWave heightAir tempDewpointWater temp
2017-Nov-16 09:05N 70°02' E 020°59'0 1.5
2017-Nov-16 09:00N 70°02' E 020°59'0 0.5
2017-Nov-16 08:28N 70°02' E 020°59'0 0.2
2017-Nov-16 07:57N 70°02' E 020°59'0 0.0
2017-Nov-16 07:30N 70°02' E 020°59'0 0.3
2017-Nov-16 06:59N 70°02' E 020°58'0 0.1
2017-Nov-16 06:29N 70°02' E 020°59'0 0.0
2017-Nov-16 05:59N 70°02' E 020°59'0 0.0
2017-Nov-16 05:26N 70°02' E 020°59'0 0.0
2017-Nov-16 04:59N 70°02' E 020°59'0 0.0
2017-Nov-16 04:29N 70°02' E 020°59'0 0.0
2017-Nov-16 03:59N 70°02' E 020°59'0 0.0
2017-Nov-16 03:29N 70°02' E 020°59'0 0.0
2017-Nov-16 02:59N 70°02' E 020°59'0 0.0
2017-Nov-16 02:29N 70°02' E 020°59'0 0.0
2017-Nov-16 01:56N 70°02' E 020°59'0 0.0
2017-Nov-16 01:29N 70°02' E 020°59'0 0.0
2017-Nov-16 00:59N 70°02' E 020°59'0 0.0
2017-Nov-16 00:29N 70°02' E 020°59'0 0.0
2017-Nov-15 23:59N 70°02' E 020°59'0 0.0
2017-Nov-15 23:29N 70°02' E 020°59'0 0.0
2017-Nov-15 22:59N 70°02' E 020°59'0 0.0
2017-Nov-15 22:29N 70°02' E 020°59'0 0.0
2017-Nov-15 21:59N 70°02' E 020°59'0 0.0
2017-Nov-15 21:26N 70°02' E 020°59'0 0.0
2017-Nov-15 20:56N 70°02' E 020°59'0 0.0
2017-Nov-15 20:26N 70°02' E 020°59'0 0.0
2017-Nov-15 19:59N 70°02' E 020°59'1 1.8
2017-Nov-15 19:30N 70°02' E 021°01'3 5.7
2017-Nov-15 19:00N 70°03' E 020°53'4 8.6
2017-Nov-15 18:30N 70°02' E 020°41'4 8.5
2017-Nov-15 18:00N 70°01' E 020°29'4 8.4
2017-Nov-15 17:30N 70°01' E 020°16'4 8.2
2017-Nov-15 17:00N 70°01' E 020°04'4 8.1
2017-Nov-15 16:30N 70°02' E 019°53'4 8.0
2017-Nov-15 16:00N 69°59' E 019°43'2 3.2
2017-Nov-15 15:30N 69°58' E 019°40'4 7.8
2017-Nov-15 15:00N 70°02' E 019°41'4 7.4
2017-Nov-15 14:30N 70°04' E 019°31'4 7.5
2017-Nov-15 14:00N 70°05' E 019°20'0 0.8
2017-Nov-15 13:29N 70°04' E 019°20'0 0.1
2017-Nov-15 12:59N 70°04' E 019°20'0 0.1
2017-Nov-15 12:28N 70°04' E 019°20'0 0.3
2017-Nov-15 11:55N 70°04' E 019°21'0 0.0
2017-Nov-15 11:19N 70°04' E 019°21'0 0.9
2017-Nov-15 11:00N 70°04' E 019°21'0 0.7
2017-Nov-15 10:30N 70°04' E 019°20'0 0.1
2017-Nov-15 10:00N 70°04' E 019°20'0 0.1
2017-Nov-15 09:30N 70°04' E 019°20'0 0.0
2017-Nov-15 09:00N 70°04' E 019°20'2 3.0
2017-Nov-15 08:30N 70°05' E 019°25'4 8.4
2017-Nov-15 08:00N 70°02' E 019°35'4 8.5
2017-Nov-15 07:30N 69°59' E 019°41'5 9.1
2017-Nov-15 06:59N 69°55' E 019°31'4 5.7
2017-Nov-15 06:22N 69°52' E 019°25'0 0.0
2017-Nov-15 05:58N 69°52' E 019°25'0 0.0
2017-Nov-15 05:25N 69°52' E 019°25'0 0.0
2017-Nov-15 04:55N 69°52' E 019°25'0 0.0
2017-Nov-15 04:28N 69°52' E 019°25'0 0.0
2017-Nov-15 03:58N 69°52' E 019°25'0 0.0
2017-Nov-15 03:28N 69°52' E 019°25'0 0.0
2017-Nov-15 02:58N 69°52' E 019°25'0 0.0
2017-Nov-15 02:28N 69°52' E 019°25'0 0.0
2017-Nov-15 01:58N 69°52' E 019°25'0 0.0
2017-Nov-15 01:28N 69°52' E 019°25'0 0.0
2017-Nov-15 00:58N 69°52' E 019°25'0 0.0
2017-Nov-15 00:13N 69°52' E 019°25'0 0.0
2017-Nov-14 23:58N 69°52' E 019°25'0 0.0
2017-Nov-14 23:19N 69°52' E 019°25'0 0.0
2017-Nov-14 22:55N 69°52' E 019°25'0 0.0
2017-Nov-14 22:25N 69°52' E 019°25'0 0.0
2017-Nov-14 21:58N 69°52' E 019°25'0 0.0
2017-Nov-14 21:25N 69°52' E 019°25'0 0.0
2017-Nov-14 20:58N 69°52' E 019°25'0 0.0
2017-Nov-14 20:19N 69°52' E 019°25'0 0.0
2017-Nov-14 19:55N 69°52' E 019°25'0 0.0
2017-Nov-14 19:28N 69°52' E 019°25'0 0.0
2017-Nov-14 18:58N 69°52' E 019°25'0 0.0
2017-Nov-14 18:28N 69°52' E 019°25'0 0.0
2017-Nov-14 17:58N 69°52' E 019°25'0 0.0
2017-Nov-14 17:28N 69°52' E 019°25'0 0.0
2017-Nov-14 16:58N 69°52' E 019°25'0 0.0
2017-Nov-14 16:28N 69°52' E 019°25'0 0.0
2017-Nov-14 15:58N 69°52' E 019°25'0 0.0
2017-Nov-14 15:30N 69°52' E 019°25'3 5.6
2017-Nov-14 15:00N 69°50' E 019°28'1 2.0
2017-Nov-14 14:30N 69°50' E 019°31'0 0.2
2017-Nov-14 13:59N 69°50' E 019°31'0 0.3
2017-Nov-14 13:30N 69°50' E 019°31'0 0.3
2017-Nov-14 13:00N 69°50' E 019°31'0 0.0
2017-Nov-14 12:30N 69°50' E 019°31'0 0.8
2017-Nov-14 12:00N 69°50' E 019°32'0 0.3
2017-Nov-14 11:30N 69°50' E 019°32'0 0.4
2017-Nov-14 10:58N 69°50' E 019°31'0 0.0
2017-Nov-14 10:25N 69°50' E 019°31'0 0.1
2017-Nov-14 09:59N 69°50' E 019°31'0 0.1
2017-Nov-14 09:30N 69°50' E 019°31'0 0.1
2017-Nov-14 08:59N 69°50' E 019°31'0 0.0
2017-Nov-14 08:29N 69°50' E 019°31'0 0.5
2017-Nov-14 08:00N 69°50' E 019°31'0 0.1
2017-Nov-14 07:30N 69°50' E 019°31'3 5.0
2017-Nov-14 07:00N 69°51' E 019°24'2 3.1
2017-Nov-14 06:28N 69°52' E 019°25'0 0.0
2017-Nov-14 05:58N 69°52' E 019°25'0 0.0
2017-Nov-14 05:28N 69°52' E 019°25'0 0.0
2017-Nov-14 04:58N 69°52' E 019°25'0 0.0
2017-Nov-14 04:28N 69°52' E 019°25'0 0.0
2017-Nov-14 03:58N 69°52' E 019°25'0 0.0
2017-Nov-14 03:28N 69°52' E 019°25'0 0.0
2017-Nov-14 02:58N 69°52' E 019°25'0 0.0
2017-Nov-14 02:28N 69°52' E 019°25'0 0.0
2017-Nov-14 01:58N 69°52' E 019°25'0 0.0
2017-Nov-14 01:28N 69°52' E 019°25'0 0.0
2017-Nov-14 00:55N 69°52' E 019°25'0 0.0
2017-Nov-14 00:28N 69°52' E 019°25'0 0.0
2017-Nov-13 23:58N 69°52' E 019°25'0 0.0
2017-Nov-13 23:28N 69°52' E 019°25'0 0.0
2017-Nov-13 22:58N 69°52' E 019°25'0 0.0
2017-Nov-13 22:28N 69°52' E 019°25'0 0.0
2017-Nov-13 21:58N 69°52' E 019°25'0 0.0
2017-Nov-13 01:58N 69°52' E 019°25'0 0.0
2017-Nov-13 01:28N 69°52' E 019°25'0 0.0
2017-Nov-13 00:58N 69°52' E 019°25'0 0.0
2017-Nov-13 00:28N 69°52' E 019°25'0 0.0
2017-Nov-12 23:58N 69°52' E 019°25'0 0.0
2017-Nov-12 23:28N 69°52' E 019°25'0 0.0
2017-Nov-12 22:58N 69°52' E 019°25'0 0.0
2017-Nov-12 22:28N 69°52' E 019°25'0 0.0
2017-Nov-12 21:58N 69°52' E 019°25'0 0.0
2017-Nov-12 21:28N 69°52' E 019°25'0 0.0
2017-Nov-12 20:58N 69°52' E 019°25'0 0.0
2017-Nov-12 20:28N 69°52' E 019°25'0 0.0
2017-Nov-12 19:58N 69°52' E 019°25'0 0.0
2017-Nov-12 19:28N 69°52' E 019°25'0 0.0
2017-Nov-12 18:58N 69°52' E 019°25'0 0.0
2017-Nov-12 18:28N 69°52' E 019°25'0 0.0
2017-Nov-12 17:58N 69°52' E 019°25'0 0.0
2017-Nov-12 17:25N 69°52' E 019°25'0 0.0
2017-Nov-12 16:55N 69°52' E 019°25'0 0.0
2017-Nov-12 16:28N 69°52' E 019°25'0 0.0
2017-Nov-12 15:58N 69°52' E 019°25'0 0.0
2017-Nov-12 15:25N 69°52' E 019°25'0 0.0
2017-Nov-12 14:58N 69°52' E 019°25'0 0.0
2017-Nov-12 14:28N 69°52' E 019°25'0 0.0
2017-Nov-12 13:55N 69°52' E 019°25'0 0.0
2017-Nov-12 13:28N 69°52' E 019°25'0 0.0
2017-Nov-12 12:58N 69°52' E 019°25'0 0.0
2017-Nov-12 12:28N 69°52' E 019°25'0 0.0
2017-Nov-12 11:58N 69°52' E 019°25'0 0.0
2017-Nov-12 11:28N 69°52' E 019°25'0 0.0
2017-Nov-12 10:55N 69°52' E 019°25'0 0.0
2017-Nov-12 10:28N 69°52' E 019°25'0 0.0
2017-Nov-12 09:58N 69°52' E 019°25'0 0.0
2017-Nov-12 09:28N 69°52' E 019°25'0 0.0
2017-Nov-12 08:58N 69°52' E 019°25'0 0.0
2017-Nov-12 08:28N 69°52' E 019°25'0 0.0
2017-Nov-12 07:58N 69°52' E 019°25'0 0.0
2017-Nov-12 07:28N 69°52' E 019°25'0 0.0
2017-Nov-12 06:58N 69°52' E 019°25'0 0.0
2017-Nov-12 06:28N 69°52' E 019°25'0 0.0
2017-Nov-12 05:58N 69°52' E 019°25'0 0.0
2017-Nov-12 05:28N 69°52' E 019°25'0 0.0
2017-Nov-12 04:58N 69°52' E 019°25'0 0.0
2017-Nov-12 04:25N 69°52' E 019°25'0 0.0
2017-Nov-12 03:58N 69°52' E 019°25'0 0.0
2017-Nov-12 03:28N 69°52' E 019°25'0 0.0
2017-Nov-12 02:58N 69°52' E 019°25'0 0.0
2017-Nov-12 02:25N 69°52' E 019°25'0 0.0
2017-Nov-12 01:55N 69°52' E 019°25'0 0.0
2017-Nov-12 01:28N 69°52' E 019°25'0 0.0
2017-Nov-12 00:58N 69°52' E 019°25'0 0.0
2017-Nov-12 00:25N 69°52' E 019°25'0 0.0
2017-Nov-11 23:40N 69°52' E 019°25'0 0.0
2017-Nov-11 23:28N 69°52' E 019°25'0 0.0
2017-Nov-11 22:52N 69°52' E 019°25'0 0.0
2017-Nov-11 22:28N 69°52' E 019°25'0 0.0
2017-Nov-11 21:58N 69°52' E 019°25'0 0.0
2017-Nov-11 21:28N 69°52' E 019°25'0 0.0
2017-Nov-11 20:58N 69°52' E 019°25'0 0.0
2017-Nov-11 20:28N 69°52' E 019°25'0 0.0
2017-Nov-11 19:52N 69°52' E 019°25'0 0.0
2017-Nov-11 19:28N 69°52' E 019°25'0 0.0
2017-Nov-11 18:16N 69°52' E 019°25'0 0.0
2017-Nov-11 17:13N 69°52' E 019°25'0 0.0
2017-Nov-11 16:55N 69°52' E 019°25'0 0.0
2017-Nov-11 16:28N 69°52' E 019°25'0 0.0
2017-Nov-11 15:55N 69°52' E 019°25'0 0.0
2017-Nov-11 15:28N 69°52' E 019°25'0 0.0
2017-Nov-11 14:58N 69°52' E 019°25'0 0.0
2017-Nov-11 14:22N 69°52' E 019°25'0 0.0
2017-Nov-11 13:55N 69°52' E 019°25'0 0.0
2017-Nov-11 13:28N 69°52' E 019°25'0 0.0
2017-Nov-11 12:58N 69°52' E 019°25'0 0.0
2017-Nov-11 12:28N 69°52' E 019°25'0 0.0
2017-Nov-11 11:40N 69°52' E 019°25'0 0.0
2017-Nov-11 11:28N 69°52' E 019°25'0 0.0
2017-Nov-11 10:58N 69°52' E 019°25'0 0.0
2017-Nov-11 10:10N 69°52' E 019°25'0 0.0
2017-Nov-11 09:58N 69°52' E 019°25'0 0.0
2017-Nov-11 09:16N 69°52' E 019°25'0 0.0
2017-Nov-11 08:58N 69°52' E 019°25'0 0.0
2017-Nov-11 08:28N 69°52' E 019°25'0 0.0
2017-Nov-11 07:28N 69°52' E 019°25'0 0.0
2017-Nov-11 06:22N 69°52' E 019°25'0 0.0
2017-Nov-11 05:43N 69°52' E 019°25'0 0.0
2017-Nov-11 05:25N 69°52' E 019°25'0 0.0
2017-Nov-11 04:52N 69°52' E 019°25'0 0.0
2017-Nov-11 04:28N 69°52' E 019°25'0 0.0
2017-Nov-11 03:58N 69°52' E 019°25'0 0.0
2017-Nov-11 03:22N 69°52' E 019°25'0 0.0
2017-Nov-11 02:58N 69°52' E 019°25'0 0.0
2017-Nov-11 02:28N 69°52' E 019°25'0 0.0
2017-Nov-11 01:58N 69°52' E 019°25'0 0.0
2017-Nov-11 01:28N 69°52' E 019°25'0 0.0
2017-Nov-11 00:58N 69°52' E 019°25'0 0.0
2017-Nov-11 00:28N 69°52' E 019°25'0 0.0
2017-Nov-10 23:58N 69°52' E 019°25'0 0.0
2017-Nov-10 23:28N 69°52' E 019°25'0 0.0
2017-Nov-10 22:58N 69°52' E 019°25'0 0.0
2017-Nov-10 22:28N 69°52' E 019°25'0 0.0
2017-Nov-10 21:58N 69°52' E 019°25'0 0.0
2017-Nov-10 21:28N 69°52' E 019°25'0 0.0
2017-Nov-10 20:58N 69°52' E 019°25'0 0.0
2017-Nov-10 20:28N 69°52' E 019°25'0 0.0
2017-Nov-10 19:58N 69°52' E 019°25'0 0.0
2017-Nov-10 19:28N 69°52' E 019°25'0 0.0
2017-Nov-10 18:55N 69°52' E 019°25'0 0.0
2017-Nov-10 18:25N 69°52' E 019°25'0 0.0
2017-Nov-10 17:58N 69°52' E 019°25'0 0.0
2017-Nov-10 17:25N 69°52' E 019°25'0 0.0
2017-Nov-10 16:55N 69°52' E 019°25'0 0.0
2017-Nov-10 16:25N 69°52' E 019°25'0 0.0
2017-Nov-10 15:55N 69°52' E 019°25'0 0.0
2017-Nov-10 15:28N 69°52' E 019°25'0 0.0
2017-Nov-10 14:58N 69°52' E 019°25'0 0.0
2017-Nov-10 14:28N 69°52' E 019°25'0 0.0
2017-Nov-10 13:58N 69°52' E 019°25'0 0.0
2017-Nov-10 13:28N 69°52' E 019°25'0 0.0
2017-Nov-10 12:58N 69°52' E 019°25'3 5.4
2017-Nov-10 12:30N 69°50' E 019°26'2 3.5
2017-Nov-10 12:00N 69°50' E 019°31'0 0.2
2017-Nov-10 11:29N 69°50' E 019°31'3 6.1
2017-Nov-10 11:00N 69°52' E 019°26'5 9.6
2017-Nov-10 10:30N 69°56' E 019°34'4 8.8
2017-Nov-10 10:00N 69°60' E 019°41'1 1.5
2017-Nov-10 09:30N 70°01' E 019°40'0 0.0
2017-Nov-10 08:59N 70°01' E 019°40'0 0.0
2017-Nov-10 08:30N 70°01' E 019°40'0 0.1
2017-Nov-10 07:59N 70°01' E 019°40'2 4.6
2017-Nov-10 07:29N 69°58' E 019°41'4 8.5
2017-Nov-10 07:00N 69°56' E 019°32'4 7.8
2017-Nov-10 06:30N 69°52' E 019°25'0 0.1
2017-Nov-10 05:56N 69°52' E 019°25'0 0.0
2017-Nov-10 05:29N 69°52' E 019°25'0 0.0
2017-Nov-10 04:59N 69°52' E 019°25'0 0.0
2017-Nov-10 04:29N 69°52' E 019°25'0 0.0
2017-Nov-10 03:59N 69°52' E 019°25'0 0.0
2017-Nov-10 03:26N 69°52' E 019°25'0 0.0
2017-Nov-10 02:59N 69°52' E 019°25'0 0.0
2017-Nov-10 02:29N 69°52' E 019°25'0 0.0
2017-Nov-10 01:56N 69°52' E 019°25'0 0.0
2017-Nov-10 01:26N 69°52' E 019°25'0 0.0
2017-Nov-10 00:56N 69°52' E 019°25'0 0.0
2017-Nov-10 00:26N 69°52' E 019°25'0 0.0
2017-Nov-09 23:59N 69°52' E 019°25'0 0.0
2017-Nov-09 23:26N 69°52' E 019°25'0 0.0
2017-Nov-09 22:59N 69°52' E 019°25'0 0.0
2017-Nov-09 22:23N 69°52' E 019°25'0 0.0
2017-Nov-09 21:59N 69°52' E 019°25'0 0.0
2017-Nov-09 21:20N 69°52' E 019°25'0 0.0
2017-Nov-09 20:59N 69°52' E 019°25'0 0.0
2017-Nov-09 20:29N 69°52' E 019°25'0 0.0
2017-Nov-09 19:59N 69°52' E 019°25'0 0.0
2017-Nov-09 19:26N 69°52' E 019°25'0 0.0
2017-Nov-09 18:59N 69°52' E 019°25'0 0.0
2017-Nov-09 18:26N 69°52' E 019°25'0 0.0
2017-Nov-09 17:59N 69°52' E 019°25'0 0.0
2017-Nov-09 17:29N 69°52' E 019°25'0 0.0
2017-Nov-09 16:59N 69°52' E 019°25'0 0.0
2017-Nov-09 16:29N 69°52' E 019°25'0 0.0
2017-Nov-09 15:59N 69°52' E 019°25'0 0.0
2017-Nov-09 15:29N 69°52' E 019°25'0 0.0
2017-Nov-09 14:59N 69°52' E 019°25'2 4.5
2017-Nov-09 14:30N 69°50' E 019°24'3 5.1
2017-Nov-09 14:00N 69°50' E 019°31'0 0.1
2017-Nov-09 13:30N 69°50' E 019°31'0 0.0
2017-Nov-09 13:00N 69°50' E 019°31'0 0.2
2017-Nov-09 12:29N 69°50' E 019°31'0 0.0
2017-Nov-09 11:59N 69°50' E 019°31'0 0.1
2017-Nov-09 11:30N 69°50' E 019°31'0 0.0
2017-Nov-09 10:58N 69°50' E 019°31'0 0.1
2017-Nov-09 10:30N 69°50' E 019°31'3 5.5
2017-Nov-09 09:59N 69°52' E 019°25'0 0.2
2017-Nov-09 09:30N 69°52' E 019°25'4 8.8
2017-Nov-09 09:00N 69°48' E 019°18'5 9.2
2017-Nov-09 08:29N 69°45' E 019°07'3 6.9
2017-Nov-09 07:59N 69°42' E 019°01'0 0.0
2017-Nov-09 07:29N 69°42' E 019°01'0 0.9
2017-Nov-09 07:00N 69°42' E 019°02'1 2.3
2017-Nov-09 06:28N 69°41' E 018°60'0 0.0
2017-Nov-09 05:58N 69°41' E 018°60'0 0.0
2017-Nov-09 05:28N 69°41' E 018°60'0 0.0
2017-Nov-09 04:58N 69°41' E 018°60'0 0.0
2017-Nov-09 04:28N 69°41' E 018°60'0 0.0
2017-Nov-09 03:58N 69°41' E 018°60'0 0.0
2017-Nov-09 03:28N 69°41' E 018°60'0 0.0
2017-Nov-09 02:58N 69°41' E 018°60'0 0.0
2017-Nov-09 02:28N 69°41' E 018°60'0 0.0
2017-Nov-09 01:58N 69°41' E 018°60'0 0.0
2017-Nov-09 01:28N 69°41' E 018°60'0 0.0
2017-Nov-09 00:58N 69°41' E 018°60'0 0.0
2017-Nov-09 00:28N 69°41' E 018°60'0 0.0
2017-Nov-08 23:58N 69°41' E 018°60'0 0.0
2017-Nov-08 23:28N 69°41' E 018°60'0 0.0
2017-Nov-08 22:58N 69°41' E 018°60'0 0.0
2017-Nov-08 22:28N 69°41' E 018°60'0 0.0
2017-Nov-08 21:58N 69°41' E 018°60'0 0.0
2017-Nov-08 21:28N 69°41' E 018°60'0 0.0
2017-Nov-08 20:58N 69°41' E 018°60'0 0.0
2017-Nov-08 20:28N 69°41' E 018°60'0 0.0
2017-Nov-08 19:58N 69°41' E 018°60'0 0.0
2017-Nov-08 19:28N 69°41' E 018°60'0 0.0
2017-Nov-08 18:58N 69°41' E 018°60'0 0.0
2017-Nov-08 18:28N 69°41' E 018°60'0 0.0
2017-Nov-08 17:58N 69°41' E 018°60'2 4.0
2017-Nov-08 17:30N 69°42' E 019°03'5 9.3
2017-Nov-08 17:00N 69°46' E 019°12'5 9.6
2017-Nov-08 16:30N 69°48' E 019°23'3 5.6
2017-Nov-08 15:58N 69°50' E 019°31'0 0.0
2017-Nov-08 15:28N 69°50' E 019°31'0 0.0
2017-Nov-08 14:58N 69°50' E 019°31'0 0.2
2017-Nov-08 14:28N 69°50' E 019°31'0 0.0
2017-Nov-08 13:43N 69°50' E 019°31'0 0.0
2017-Nov-08 13:28N 69°50' E 019°31'0 0.1
2017-Nov-08 12:34N 69°50' E 019°31'0 0.0
2017-Nov-08 12:28N 69°50' E 019°31'0 0.0
2017-Nov-08 11:49N 69°50' E 019°31'19 6.8
2017-Nov-08 09:05N 69°59' E 020°18'1 9.0
2017-Nov-08 09:01N 69°59' E 020°20'4 8.6
2017-Nov-08 08:29N 70°01' E 020°32'4 8.7
2017-Nov-08 08:00N 70°02' E 020°44'4 8.7
2017-Nov-08 07:30N 70°04' E 020°56'2 4.0
2017-Nov-08 07:00N 70°02' E 020°59'0 0.2
2017-Nov-08 06:30N 70°02' E 020°59'0 0.1
2017-Nov-08 05:58N 70°02' E 020°59'0 0.0
2017-Nov-08 05:28N 70°02' E 020°59'0 0.0
2017-Nov-08 04:58N 70°02' E 020°59'0 0.0
2017-Nov-08 04:28N 70°02' E 020°59'0 0.0
2017-Nov-08 03:58N 70°02' E 020°59'0 0.0
2017-Nov-08 03:28N 70°02' E 020°59'0 0.0
2017-Nov-08 02:58N 70°02' E 020°59'0 0.0
2017-Nov-08 02:28N 70°02' E 020°59'0 0.0
2017-Nov-08 01:58N 70°02' E 020°59'0 0.0
2017-Nov-08 01:28N 70°02' E 020°59'0 0.0
2017-Nov-08 00:58N 70°02' E 020°59'0 0.0
2017-Nov-08 00:28N 70°02' E 020°59'0 0.0
2017-Nov-07 23:58N 70°02' E 020°59'0 0.0
2017-Nov-07 22:37N 70°02' E 020°59'0 0.0
2017-Nov-07 22:28N 70°02' E 020°59'0 0.0
2017-Nov-07 21:58N 70°02' E 020°59'0 0.0
2017-Nov-07 21:28N 70°02' E 020°59'0 0.0
2017-Nov-07 20:58N 70°02' E 020°59'0 0.0
2017-Nov-07 20:28N 70°02' E 020°59'0 0.0
2017-Nov-07 19:58N 70°02' E 020°59'0 0.0
2017-Nov-07 19:28N 70°02' E 020°59'0 0.0
2017-Nov-07 18:55N 70°02' E 020°59'0 0.0
2017-Nov-07 18:28N 70°02' E 020°59'0 0.0
2017-Nov-07 17:58N 70°02' E 020°59'0 0.2
2017-Nov-07 17:30N 70°02' E 020°59'0 0.0
2017-Nov-07 17:00N 70°02' E 020°59'0 0.1
2017-Nov-07 16:29N 70°02' E 020°59'2 4.4
2017-Nov-07 15:59N 70°03' E 020°54'510.2
2017-Nov-07 15:30N 70°02' E 020°40'5 9.9
2017-Nov-07 15:00N 70°00' E 020°26'5 9.8
2017-Nov-07 14:30N 69°58' E 020°13'510.1
2017-Nov-07 14:00N 69°55' E 020°01'5 9.9
2017-Nov-07 13:30N 69°52' E 019°49'5 9.5
2017-Nov-07 13:00N 69°50' E 019°37'2 3.9
2017-Nov-07 12:28N 69°50' E 019°31'0 0.0
2017-Nov-07 11:58N 69°50' E 019°31'0 0.1
2017-Nov-07 11:30N 69°50' E 019°31'0 0.0
2017-Nov-07 11:00N 69°50' E 019°31'0 0.0
2017-Nov-07 10:29N 69°50' E 019°31'0 0.2
2017-Nov-07 10:00N 69°50' E 019°31'0 0.1
2017-Nov-07 09:30N 69°50' E 019°31'0 0.0
2017-Nov-07 09:00N 69°50' E 019°31'0 0.0
2017-Nov-07 08:30N 69°50' E 019°31'0 0.0
2017-Nov-07 08:00N 69°50' E 019°31'0 0.0
2017-Nov-07 07:30N 69°50' E 019°31'3 5.5
2017-Nov-07 07:00N 69°51' E 019°24'1 2.1
2017-Nov-07 06:29N 69°52' E 019°25'0 0.0
2017-Nov-07 05:59N 69°52' E 019°25'0 0.0
2017-Nov-07 05:29N 69°52' E 019°25'0 0.0
2017-Nov-07 04:59N 69°52' E 019°25'0 0.0
2017-Nov-07 04:29N 69°52' E 019°25'0 0.0
2017-Nov-07 03:59N 69°52' E 019°25'0 0.0
2017-Nov-07 03:29N 69°52' E 019°25'0 0.0
2017-Nov-07 02:59N 69°52' E 019°25'0 0.0
2017-Nov-07 02:29N 69°52' E 019°25'0 0.0
2017-Nov-07 01:59N 69°52' E 019°25'0 0.0
2017-Nov-07 01:29N 69°52' E 019°25'0 0.0
2017-Nov-07 00:59N 69°52' E 019°25'0 0.0
2017-Nov-07 00:29N 69°52' E 019°25'0 0.0
2017-Nov-06 23:59N 69°52' E 019°25'0 0.0
2017-Nov-06 23:26N 69°52' E 019°25'0 0.0
2017-Nov-06 22:59N 69°52' E 019°25'0 0.0
2017-Nov-06 22:29N 69°52' E 019°25'0 0.0
2017-Nov-06 21:56N 69°52' E 019°25'0 0.0
2017-Nov-06 21:29N 69°52' E 019°25'0 0.0
2017-Nov-06 20:59N 69°52' E 019°25'0 0.0
2017-Nov-06 20:29N 69°52' E 019°25'  
Track history (hours):
 
Tides and Currents Weather Stations Pressure Air Temp Water Temp Dewpoint Dewpoint Depression Visibility Wind Speed Wind Dir Waves Ship Positions

Storm

Last reported at 2017-Nov-16 09:05 UTC. Time now 2017-Nov-18 17:27 UTC.
Position N 70°02' E 020°59'.

Length 15 m.

Type: . MMSI: 257689600.

Date/timePositionNaut miles runAvg speedWind from/ knotsBaromVisibWave heightAir tempDewpointWater temp
2017-Nov-16 09:05N 70°02' E 020°59'0 1.5
2017-Nov-16 09:00N 70°02' E 020°59'0 0.5
2017-Nov-16 08:28N 70°02' E 020°59'0 0.2
2017-Nov-16 07:57N 70°02' E 020°59'0 0.0
2017-Nov-16 07:30N 70°02' E 020°59'0 0.3
2017-Nov-16 06:59N 70°02' E 020°58'0 0.1
2017-Nov-16 06:29N 70°02' E 020°59'0 0.0
2017-Nov-16 05:59N 70°02' E 020°59'0 0.0
2017-Nov-16 05:26N 70°02' E 020°59'0 0.0
2017-Nov-16 04:59N 70°02' E 020°59'0 0.0
2017-Nov-16 04:29N 70°02' E 020°59'0 0.0
2017-Nov-16 03:59N 70°02' E 020°59'0 0.0
2017-Nov-16 03:29N 70°02' E 020°59'0 0.0
2017-Nov-16 02:59N 70°02' E 020°59'0 0.0
2017-Nov-16 02:29N 70°02' E 020°59'0 0.0
2017-Nov-16 01:56N 70°02' E 020°59'0 0.0
2017-Nov-16 01:29N 70°02' E 020°59'0 0.0
2017-Nov-16 00:59N 70°02' E 020°59'0 0.0
2017-Nov-16 00:29N 70°02' E 020°59'0 0.0
2017-Nov-15 23:59N 70°02' E 020°59'0 0.0
2017-Nov-15 23:29N 70°02' E 020°59'0 0.0
2017-Nov-15 22:59N 70°02' E 020°59'0 0.0
2017-Nov-15 22:29N 70°02' E 020°59'0 0.0
2017-Nov-15 21:59N 70°02' E 020°59'0 0.0
2017-Nov-15 21:26N 70°02' E 020°59'0 0.0
2017-Nov-15 20:56N 70°02' E 020°59'0 0.0
2017-Nov-15 20:26N 70°02' E 020°59'0 0.0
2017-Nov-15 19:59N 70°02' E 020°59'1 1.8
2017-Nov-15 19:30N 70°02' E 021°01'3 5.7
2017-Nov-15 19:00N 70°03' E 020°53'4 8.6
2017-Nov-15 18:30N 70°02' E 020°41'4 8.5
2017-Nov-15 18:00N 70°01' E 020°29'4 8.4
2017-Nov-15 17:30N 70°01' E 020°16'4 8.2
2017-Nov-15 17:00N 70°01' E 020°04'4 8.1
2017-Nov-15 16:30N 70°02' E 019°53'4 8.0
2017-Nov-15 16:00N 69°59' E 019°43'2 3.2
2017-Nov-15 15:30N 69°58' E 019°40'4 7.8
2017-Nov-15 15:00N 70°02' E 019°41'4 7.4
2017-Nov-15 14:30N 70°04' E 019°31'4 7.5
2017-Nov-15 14:00N 70°05' E 019°20'0 0.8
2017-Nov-15 13:29N 70°04' E 019°20'0 0.1
2017-Nov-15 12:59N 70°04' E 019°20'0 0.1
2017-Nov-15 12:28N 70°04' E 019°20'0 0.3
2017-Nov-15 11:55N 70°04' E 019°21'0 0.0
2017-Nov-15 11:19N 70°04' E 019°21'0 0.9
2017-Nov-15 11:00N 70°04' E 019°21'0 0.7
2017-Nov-15 10:30N 70°04' E 019°20'0 0.1
2017-Nov-15 10:00N 70°04' E 019°20'0 0.1
2017-Nov-15 09:30N 70°04' E 019°20'0 0.0
2017-Nov-15 09:00N 70°04' E 019°20'2 3.0
2017-Nov-15 08:30N 70°05' E 019°25'4 8.4
2017-Nov-15 08:00N 70°02' E 019°35'4 8.5
2017-Nov-15 07:30N 69°59' E 019°41'5 9.1
2017-Nov-15 06:59N 69°55' E 019°31'4 5.7
2017-Nov-15 06:22N 69°52' E 019°25'0 0.0
2017-Nov-15 05:58N 69°52' E 019°25'0 0.0
2017-Nov-15 05:25N 69°52' E 019°25'0 0.0
2017-Nov-15 04:55N 69°52' E 019°25'0 0.0
2017-Nov-15 04:28N 69°52' E 019°25'0 0.0
2017-Nov-15 03:58N 69°52' E 019°25'0 0.0
2017-Nov-15 03:28N 69°52' E 019°25'0 0.0
2017-Nov-15 02:58N 69°52' E 019°25'0 0.0
2017-Nov-15 02:28N 69°52' E 019°25'0 0.0
2017-Nov-15 01:58N 69°52' E 019°25'0 0.0
2017-Nov-15 01:28N 69°52' E 019°25'0 0.0
2017-Nov-15 00:58N 69°52' E 019°25'0 0.0
2017-Nov-15 00:13N 69°52' E 019°25'0 0.0
2017-Nov-14 23:58N 69°52' E 019°25'0 0.0
2017-Nov-14 23:19N 69°52' E 019°25'0 0.0
2017-Nov-14 22:55N 69°52' E 019°25'0 0.0
2017-Nov-14 22:25N 69°52' E 019°25'0 0.0
2017-Nov-14 21:58N 69°52' E 019°25'0 0.0
2017-Nov-14 21:25N 69°52' E 019°25'0 0.0
2017-Nov-14 20:58N 69°52' E 019°25'0 0.0
2017-Nov-14 20:19N 69°52' E 019°25'0 0.0
2017-Nov-14 19:55N 69°52' E 019°25'0 0.0
2017-Nov-14 19:28N 69°52' E 019°25'0 0.0
2017-Nov-14 18:58N 69°52' E 019°25'0 0.0
2017-Nov-14 18:28N 69°52' E 019°25'0 0.0
2017-Nov-14 17:58N 69°52' E 019°25'0 0.0
2017-Nov-14 17:28N 69°52' E 019°25'0 0.0
2017-Nov-14 16:58N 69°52' E 019°25'0 0.0
2017-Nov-14 16:28N 69°52' E 019°25'0 0.0
2017-Nov-14 15:58N 69°52' E 019°25'0 0.0
2017-Nov-14 15:30N 69°52' E 019°25'3 5.6
2017-Nov-14 15:00N 69°50' E 019°28'1 2.0
2017-Nov-14 14:30N 69°50' E 019°31'0 0.2
2017-Nov-14 13:59N 69°50' E 019°31'0 0.3
2017-Nov-14 13:30N 69°50' E 019°31'0 0.3
2017-Nov-14 13:00N 69°50' E 019°31'0 0.0
2017-Nov-14 12:30N 69°50' E 019°31'0 0.8
2017-Nov-14 12:00N 69°50' E 019°32'0 0.3
2017-Nov-14 11:30N 69°50' E 019°32'0 0.4
2017-Nov-14 10:58N 69°50' E 019°31'0 0.0
2017-Nov-14 10:25N 69°50' E 019°31'0 0.1
2017-Nov-14 09:59N 69°50' E 019°31'0 0.1
2017-Nov-14 09:30N 69°50' E 019°31'0 0.1
2017-Nov-14 08:59N 69°50' E 019°31'0 0.0
2017-Nov-14 08:29N 69°50' E 019°31'0 0.5
2017-Nov-14 08:00N 69°50' E 019°31'0 0.1
2017-Nov-14 07:30N 69°50' E 019°31'3 5.0
2017-Nov-14 07:00N 69°51' E 019°24'2 3.1
2017-Nov-14 06:28N 69°52' E 019°25'0 0.0
2017-Nov-14 05:58N 69°52' E 019°25'0 0.0
2017-Nov-14 05:28N 69°52' E 019°25'0 0.0
2017-Nov-14 04:58N 69°52' E 019°25'0 0.0
2017-Nov-14 04:28N 69°52' E 019°25'0 0.0
2017-Nov-14 03:58N 69°52' E 019°25'0 0.0
2017-Nov-14 03:28N 69°52' E 019°25'0 0.0
2017-Nov-14 02:58N 69°52' E 019°25'0 0.0
2017-Nov-14 02:28N 69°52' E 019°25'0 0.0
2017-Nov-14 01:58N 69°52' E 019°25'0 0.0
2017-Nov-14 01:28N 69°52' E 019°25'0 0.0
2017-Nov-14 00:55N 69°52' E 019°25'0 0.0
2017-Nov-14 00:28N 69°52' E 019°25'0 0.0
2017-Nov-13 23:58N 69°52' E 019°25'0 0.0
2017-Nov-13 23:28N 69°52' E 019°25'0 0.0
2017-Nov-13 22:58N 69°52' E 019°25'0 0.0
2017-Nov-13 22:28N 69°52' E 019°25'0 0.0
2017-Nov-13 21:58N 69°52' E 019°25'0 0.0
2017-Nov-13 01:58N 69°52' E 019°25'0 0.0
2017-Nov-13 01:28N 69°52' E 019°25'0 0.0
2017-Nov-13 00:58N 69°52' E 019°25'0 0.0
2017-Nov-13 00:28N 69°52' E 019°25'0 0.0
2017-Nov-12 23:58N 69°52' E 019°25'0 0.0
2017-Nov-12 23:28N 69°52' E 019°25'0 0.0
2017-Nov-12 22:58N 69°52' E 019°25'0 0.0
2017-Nov-12 22:28N 69°52' E 019°25'0 0.0
2017-Nov-12 21:58N 69°52' E 019°25'0 0.0
2017-Nov-12 21:28N 69°52' E 019°25'0 0.0
2017-Nov-12 20:58N 69°52' E 019°25'0 0.0
2017-Nov-12 20:28N 69°52' E 019°25'0 0.0
2017-Nov-12 19:58N 69°52' E 019°25'0 0.0
2017-Nov-12 19:28N 69°52' E 019°25'0 0.0
2017-Nov-12 18:58N 69°52' E 019°25'0 0.0
2017-Nov-12 18:28N 69°52' E 019°25'0 0.0
2017-Nov-12 17:58N 69°52' E 019°25'0 0.0
2017-Nov-12 17:25N 69°52' E 019°25'0 0.0
2017-Nov-12 16:55N 69°52' E 019°25'0 0.0
2017-Nov-12 16:28N 69°52' E 019°25'0 0.0
2017-Nov-12 15:58N 69°52' E 019°25'0 0.0
2017-Nov-12 15:25N 69°52' E 019°25'0 0.0
2017-Nov-12 14:58N 69°52' E 019°25'0 0.0
2017-Nov-12 14:28N 69°52' E 019°25'0 0.0
2017-Nov-12 13:55N 69°52' E 019°25'0 0.0
2017-Nov-12 13:28N 69°52' E 019°25'0 0.0
2017-Nov-12 12:58N 69°52' E 019°25'0 0.0
2017-Nov-12 12:28N 69°52' E 019°25'0 0.0
2017-Nov-12 11:58N 69°52' E 019°25'0 0.0
2017-Nov-12 11:28N 69°52' E 019°25'0 0.0
2017-Nov-12 10:55N 69°52' E 019°25'0 0.0
2017-Nov-12 10:28N 69°52' E 019°25'0 0.0
2017-Nov-12 09:58N 69°52' E 019°25'0 0.0
2017-Nov-12 09:28N 69°52' E 019°25'0 0.0
2017-Nov-12 08:58N 69°52' E 019°25'0 0.0
2017-Nov-12 08:28N 69°52' E 019°25'0 0.0
2017-Nov-12 07:58N 69°52' E 019°25'0 0.0
2017-Nov-12 07:28N 69°52' E 019°25'0 0.0
2017-Nov-12 06:58N 69°52' E 019°25'0 0.0
2017-Nov-12 06:28N 69°52' E 019°25'0 0.0
2017-Nov-12 05:58N 69°52' E 019°25'0 0.0
2017-Nov-12 05:28N 69°52' E 019°25'0 0.0
2017-Nov-12 04:58N 69°52' E 019°25'0 0.0
2017-Nov-12 04:25N 69°52' E 019°25'0 0.0
2017-Nov-12 03:58N 69°52' E 019°25'0 0.0
2017-Nov-12 03:28N 69°52' E 019°25'0 0.0
2017-Nov-12 02:58N 69°52' E 019°25'0 0.0
2017-Nov-12 02:25N 69°52' E 019°25'0 0.0
2017-Nov-12 01:55N 69°52' E 019°25'0 0.0
2017-Nov-12 01:28N 69°52' E 019°25'0 0.0
2017-Nov-12 00:58N 69°52' E 019°25'0 0.0
2017-Nov-12 00:25N 69°52' E 019°25'0 0.0
2017-Nov-11 23:40N 69°52' E 019°25'0 0.0
2017-Nov-11 23:28N 69°52' E 019°25'0 0.0
2017-Nov-11 22:52N 69°52' E 019°25'0 0.0
2017-Nov-11 22:28N 69°52' E 019°25'0 0.0
2017-Nov-11 21:58N 69°52' E 019°25'0 0.0
2017-Nov-11 21:28N 69°52' E 019°25'0 0.0
2017-Nov-11 20:58N 69°52' E 019°25'0 0.0
2017-Nov-11 20:28N 69°52' E 019°25'0 0.0
2017-Nov-11 19:52N 69°52' E 019°25'0 0.0
2017-Nov-11 19:28N 69°52' E 019°25'0 0.0
2017-Nov-11 18:16N 69°52' E 019°25'0 0.0
2017-Nov-11 17:13N 69°52' E 019°25'0 0.0
2017-Nov-11 16:55N 69°52' E 019°25'0 0.0
2017-Nov-11 16:28N 69°52' E 019°25'0 0.0
2017-Nov-11 15:55N 69°52' E 019°25'0 0.0
2017-Nov-11 15:28N 69°52' E 019°25'0 0.0
2017-Nov-11 14:58N 69°52' E 019°25'0 0.0
2017-Nov-11 14:22N 69°52' E 019°25'0 0.0
2017-Nov-11 13:55N 69°52' E 019°25'0 0.0
2017-Nov-11 13:28N 69°52' E 019°25'0 0.0
2017-Nov-11 12:58N 69°52' E 019°25'0 0.0
2017-Nov-11 12:28N 69°52' E 019°25'0 0.0
2017-Nov-11 11:40N 69°52' E 019°25'0 0.0
2017-Nov-11 11:28N 69°52' E 019°25'0 0.0
2017-Nov-11 10:58N 69°52' E 019°25'0 0.0
2017-Nov-11 10:10N 69°52' E 019°25'0 0.0
2017-Nov-11 09:58N 69°52' E 019°25'0 0.0
2017-Nov-11 09:16N 69°52' E 019°25'0 0.0
2017-Nov-11 08:58N 69°52' E 019°25'0 0.0
2017-Nov-11 08:28N 69°52' E 019°25'0 0.0
2017-Nov-11 07:28N 69°52' E 019°25'0 0.0
2017-Nov-11 06:22N 69°52' E 019°25'0 0.0
2017-Nov-11 05:43N 69°52' E 019°25'0 0.0
2017-Nov-11 05:25N 69°52' E 019°25'0 0.0
2017-Nov-11 04:52N 69°52' E 019°25'0 0.0
2017-Nov-11 04:28N 69°52' E 019°25'0 0.0
2017-Nov-11 03:58N 69°52' E 019°25'0 0.0
2017-Nov-11 03:22N 69°52' E 019°25'0 0.0
2017-Nov-11 02:58N 69°52' E 019°25'0 0.0
2017-Nov-11 02:28N 69°52' E 019°25'0 0.0
2017-Nov-11 01:58N 69°52' E 019°25'0 0.0
2017-Nov-11 01:28N 69°52' E 019°25'0 0.0
2017-Nov-11 00:58N 69°52' E 019°25'0 0.0
2017-Nov-11 00:28N 69°52' E 019°25'0 0.0
2017-Nov-10 23:58N 69°52' E 019°25'0 0.0
2017-Nov-10 23:28N 69°52' E 019°25'0 0.0
2017-Nov-10 22:58N 69°52' E 019°25'0 0.0
2017-Nov-10 22:28N 69°52' E 019°25'0 0.0
2017-Nov-10 21:58N 69°52' E 019°25'0 0.0
2017-Nov-10 21:28N 69°52' E 019°25'0 0.0
2017-Nov-10 20:58N 69°52' E 019°25'0 0.0
2017-Nov-10 20:28N 69°52' E 019°25'0 0.0
2017-Nov-10 19:58N 69°52' E 019°25'0 0.0
2017-Nov-10 19:28N 69°52' E 019°25'0 0.0
2017-Nov-10 18:55N 69°52' E 019°25'0 0.0
2017-Nov-10 18:25N 69°52' E 019°25'0 0.0
2017-Nov-10 17:58N 69°52' E 019°25'0 0.0
2017-Nov-10 17:25N 69°52' E 019°25'0 0.0
2017-Nov-10 16:55N 69°52' E 019°25'0 0.0
2017-Nov-10 16:25N 69°52' E 019°25'0 0.0
2017-Nov-10 15:55N 69°52' E 019°25'0 0.0
2017-Nov-10 15:28N 69°52' E 019°25'0 0.0
2017-Nov-10 14:58N 69°52' E 019°25'0 0.0
2017-Nov-10 14:28N 69°52' E 019°25'0 0.0
2017-Nov-10 13:58N 69°52' E 019°25'0 0.0
2017-Nov-10 13:28N 69°52' E 019°25'0 0.0
2017-Nov-10 12:58N 69°52' E 019°25'3 5.4
2017-Nov-10 12:30N 69°50' E 019°26'2 3.5
2017-Nov-10 12:00N 69°50' E 019°31'0 0.2
2017-Nov-10 11:29N 69°50' E 019°31'3 6.1
2017-Nov-10 11:00N 69°52' E 019°26'5 9.6
2017-Nov-10 10:30N 69°56' E 019°34'4 8.8
2017-Nov-10 10:00N 69°60' E 019°41'1 1.5
2017-Nov-10 09:30N 70°01' E 019°40'0 0.0
2017-Nov-10 08:59N 70°01' E 019°40'0 0.0
2017-Nov-10 08:30N 70°01' E 019°40'0 0.1
2017-Nov-10 07:59N 70°01' E 019°40'2 4.6
2017-Nov-10 07:29N 69°58' E 019°41'4 8.5
2017-Nov-10 07:00N 69°56' E 019°32'4 7.8
2017-Nov-10 06:30N 69°52' E 019°25'0 0.1
2017-Nov-10 05:56N 69°52' E 019°25'0 0.0
2017-Nov-10 05:29N 69°52' E 019°25'0 0.0
2017-Nov-10 04:59N 69°52' E 019°25'0 0.0
2017-Nov-10 04:29N 69°52' E 019°25'0 0.0
2017-Nov-10 03:59N 69°52' E 019°25'0 0.0
2017-Nov-10 03:26N 69°52' E 019°25'0 0.0
2017-Nov-10 02:59N 69°52' E 019°25'0 0.0
2017-Nov-10 02:29N 69°52' E 019°25'0 0.0
2017-Nov-10 01:56N 69°52' E 019°25'0 0.0
2017-Nov-10 01:26N 69°52' E 019°25'0 0.0
2017-Nov-10 00:56N 69°52' E 019°25'0 0.0
2017-Nov-10 00:26N 69°52' E 019°25'0 0.0
2017-Nov-09 23:59N 69°52' E 019°25'0 0.0
2017-Nov-09 23:26N 69°52' E 019°25'0 0.0
2017-Nov-09 22:59N 69°52' E 019°25'0 0.0
2017-Nov-09 22:23N 69°52' E 019°25'0 0.0
2017-Nov-09 21:59N 69°52' E 019°25'0 0.0
2017-Nov-09 21:20N 69°52' E 019°25'0 0.0
2017-Nov-09 20:59N 69°52' E 019°25'0 0.0
2017-Nov-09 20:29N 69°52' E 019°25'0 0.0
2017-Nov-09 19:59N 69°52' E 019°25'0 0.0
2017-Nov-09 19:26N 69°52' E 019°25'0 0.0
2017-Nov-09 18:59N 69°52' E 019°25'0 0.0
2017-Nov-09 18:26N 69°52' E 019°25'0 0.0
2017-Nov-09 17:59N 69°52' E 019°25'0 0.0
2017-Nov-09 17:29N 69°52' E 019°25'0 0.0
2017-Nov-09 16:59N 69°52' E 019°25'0 0.0
2017-Nov-09 16:29N 69°52' E 019°25'0 0.0
2017-Nov-09 15:59N 69°52' E 019°25'0 0.0
2017-Nov-09 15:29N 69°52' E 019°25'0 0.0
2017-Nov-09 14:59N 69°52' E 019°25'2 4.5
2017-Nov-09 14:30N 69°50' E 019°24'3 5.1
2017-Nov-09 14:00N 69°50' E 019°31'0 0.1
2017-Nov-09 13:30N 69°50' E 019°31'0 0.0
2017-Nov-09 13:00N 69°50' E 019°31'0 0.2
2017-Nov-09 12:29N 69°50' E 019°31'0 0.0
2017-Nov-09 11:59N 69°50' E 019°31'0 0.1
2017-Nov-09 11:30N 69°50' E 019°31'0 0.0
2017-Nov-09 10:58N 69°50' E 019°31'0 0.1
2017-Nov-09 10:30N 69°50' E 019°31'3 5.5
2017-Nov-09 09:59N 69°52' E 019°25'0 0.2
2017-Nov-09 09:30N 69°52' E 019°25'4 8.8
2017-Nov-09 09:00N 69°48' E 019°18'5 9.2
2017-Nov-09 08:29N 69°45' E 019°07'3 6.9
2017-Nov-09 07:59N 69°42' E 019°01'0 0.0
2017-Nov-09 07:29N 69°42' E 019°01'0 0.9
2017-Nov-09 07:00N 69°42' E 019°02'1 2.3
2017-Nov-09 06:28N 69°41' E 018°60'0 0.0
2017-Nov-09 05:58N 69°41' E 018°60'0 0.0
2017-Nov-09 05:28N 69°41' E 018°60'0 0.0
2017-Nov-09 04:58N 69°41' E 018°60'0 0.0
2017-Nov-09 04:28N 69°41' E 018°60'0 0.0
2017-Nov-09 03:58N 69°41' E 018°60'0 0.0
2017-Nov-09 03:28N 69°41' E 018°60'0 0.0
2017-Nov-09 02:58N 69°41' E 018°60'0 0.0
2017-Nov-09 02:28N 69°41' E 018°60'0 0.0
2017-Nov-09 01:58N 69°41' E 018°60'0 0.0
2017-Nov-09 01:28N 69°41' E 018°60'0 0.0
2017-Nov-09 00:58N 69°41' E 018°60'0 0.0
2017-Nov-09 00:28N 69°41' E 018°60'0 0.0
2017-Nov-08 23:58N 69°41' E 018°60'0 0.0
2017-Nov-08 23:28N 69°41' E 018°60'0 0.0
2017-Nov-08 22:58N 69°41' E 018°60'0 0.0
2017-Nov-08 22:28N 69°41' E 018°60'0 0.0
2017-Nov-08 21:58N 69°41' E 018°60'0 0.0
2017-Nov-08 21:28N 69°41' E 018°60'0 0.0
2017-Nov-08 20:58N 69°41' E 018°60'0 0.0
2017-Nov-08 20:28N 69°41' E 018°60'0 0.0
2017-Nov-08 19:58N 69°41' E 018°60'0 0.0
2017-Nov-08 19:28N 69°41' E 018°60'0 0.0
2017-Nov-08 18:58N 69°41' E 018°60'0 0.0
2017-Nov-08 18:28N 69°41' E 018°60'0 0.0
2017-Nov-08 17:58N 69°41' E 018°60'2 4.0
2017-Nov-08 17:30N 69°42' E 019°03'5 9.3
2017-Nov-08 17:00N 69°46' E 019°12'5 9.6
2017-Nov-08 16:30N 69°48' E 019°23'3 5.6
2017-Nov-08 15:58N 69°50' E 019°31'0 0.0
2017-Nov-08 15:28N 69°50' E 019°31'0 0.0
2017-Nov-08 14:58N 69°50' E 019°31'0 0.2
2017-Nov-08 14:28N 69°50' E 019°31'0 0.0
2017-Nov-08 13:43N 69°50' E 019°31'0 0.0
2017-Nov-08 13:28N 69°50' E 019°31'0 0.1
2017-Nov-08 12:34N 69°50' E 019°31'0 0.0
2017-Nov-08 12:28N 69°50' E 019°31'0 0.0
2017-Nov-08 11:49N 69°50' E 019°31'19 6.8
2017-Nov-08 09:05N 69°59' E 020°18'1 9.0
2017-Nov-08 09:01N 69°59' E 020°20'4 8.6
2017-Nov-08 08:29N 70°01' E 020°32'4 8.7
2017-Nov-08 08:00N 70°02' E 020°44'4 8.7
2017-Nov-08 07:30N 70°04' E 020°56'2 4.0
2017-Nov-08 07:00N 70°02' E 020°59'0 0.2
2017-Nov-08 06:30N 70°02' E 020°59'0 0.1
2017-Nov-08 05:58N 70°02' E 020°59'0 0.0
2017-Nov-08 05:28N 70°02' E 020°59'0 0.0
2017-Nov-08 04:58N 70°02' E 020°59'0 0.0
2017-Nov-08 04:28N 70°02' E 020°59'0 0.0
2017-Nov-08 03:58N 70°02' E 020°59'0 0.0
2017-Nov-08 03:28N 70°02' E 020°59'0 0.0
2017-Nov-08 02:58N 70°02' E 020°59'0 0.0
2017-Nov-08 02:28N 70°02' E 020°59'0 0.0
2017-Nov-08 01:58N 70°02' E 020°59'0 0.0
2017-Nov-08 01:28N 70°02' E 020°59'0 0.0
2017-Nov-08 00:58N 70°02' E 020°59'0 0.0
2017-Nov-08 00:28N 70°02' E 020°59'0 0.0
2017-Nov-07 23:58N 70°02' E 020°59'0 0.0
2017-Nov-07 22:37N 70°02' E 020°59'0 0.0
2017-Nov-07 22:28N 70°02' E 020°59'0 0.0
2017-Nov-07 21:58N 70°02' E 020°59'0 0.0
2017-Nov-07 21:28N 70°02' E 020°59'0 0.0
2017-Nov-07 20:58N 70°02' E 020°59'0 0.0
2017-Nov-07 20:28N 70°02' E 020°59'0 0.0
2017-Nov-07 19:58N 70°02' E 020°59'0 0.0
2017-Nov-07 19:28N 70°02' E 020°59'0 0.0
2017-Nov-07 18:55N 70°02' E 020°59'0 0.0
2017-Nov-07 18:28N 70°02' E 020°59'0 0.0
2017-Nov-07 17:58N 70°02' E 020°59'0 0.2
2017-Nov-07 17:30N 70°02' E 020°59'0 0.0
2017-Nov-07 17:00N 70°02' E 020°59'0 0.1
2017-Nov-07 16:29N 70°02' E 020°59'2 4.4
2017-Nov-07 15:59N 70°03' E 020°54'510.2
2017-Nov-07 15:30N 70°02' E 020°40'5 9.9
2017-Nov-07 15:00N 70°00' E 020°26'5 9.8
2017-Nov-07 14:30N 69°58' E 020°13'510.1
2017-Nov-07 14:00N 69°55' E 020°01'5 9.9
2017-Nov-07 13:30N 69°52' E 019°49'5 9.5
2017-Nov-07 13:00N 69°50' E 019°37'2 3.9
2017-Nov-07 12:28N 69°50' E 019°31'0 0.0
2017-Nov-07 11:58N 69°50' E 019°31'0 0.1
2017-Nov-07 11:30N 69°50' E 019°31'0 0.0
2017-Nov-07 11:00N 69°50' E 019°31'0 0.0
2017-Nov-07 10:29N 69°50' E 019°31'0 0.2
2017-Nov-07 10:00N 69°50' E 019°31'0 0.1
2017-Nov-07 09:30N 69°50' E 019°31'0 0.0
2017-Nov-07 09:00N 69°50' E 019°31'0 0.0
2017-Nov-07 08:30N 69°50' E 019°31'0 0.0
2017-Nov-07 08:00N 69°50' E 019°31'0 0.0
2017-Nov-07 07:30N 69°50' E 019°31'3 5.5
2017-Nov-07 07:00N 69°51' E 019°24'1 2.1
2017-Nov-07 06:29N 69°52' E 019°25'0 0.0
2017-Nov-07 05:59N 69°52' E 019°25'0 0.0
2017-Nov-07 05:29N 69°52' E 019°25'0 0.0
2017-Nov-07 04:59N 69°52' E 019°25'0 0.0
2017-Nov-07 04:29N 69°52' E 019°25'0 0.0
2017-Nov-07 03:59N 69°52' E 019°25'0 0.0
2017-Nov-07 03:29N 69°52' E 019°25'0 0.0
2017-Nov-07 02:59N 69°52' E 019°25'0 0.0
2017-Nov-07 02:29N 69°52' E 019°25'0 0.0
2017-Nov-07 01:59N 69°52' E 019°25'0 0.0
2017-Nov-07 01:29N 69°52' E 019°25'0 0.0
2017-Nov-07 00:59N 69°52' E 019°25'0 0.0
2017-Nov-07 00:29N 69°52' E 019°25'0 0.0
2017-Nov-06 23:59N 69°52' E 019°25'0 0.0
2017-Nov-06 23:26N 69°52' E 019°25'0 0.0
2017-Nov-06 22:59N 69°52' E 019°25'0 0.0
2017-Nov-06 22:29N 69°52' E 019°25'0 0.0
2017-Nov-06 21:56N 69°52' E 019°25'0 0.0
2017-Nov-06 21:29N 69°52' E 019°25'0 0.0
2017-Nov-06 20:59N 69°52' E 019°25'0 0.0
2017-Nov-06 20:29N 69°52' E 019°25'  

Dump ship's entire track history